Time;durP1;ratioP1;P1;durP2;ratioP2;P2;SDS_P1;SDS_P2;PMS_P1;PMS_P2;Temp;Humidity;BMP_temperature;BMP_pressure;BME280_temperature;BME280_humidity;BME280_pressure;Samples;Min_cycle;Max_cycle;Signal;HPM_P1;HPM_P2
2022/09/01 00:00:54;;;;;;;4.57;2.20;;;;;;;;;;4957897;28;20995;-78
2022/09/01 00:03:24;;;;;;;3.53;1.90;;;;;;;;;;4977235;28;20435;-78
2022/09/01 00:05:53;;;;;;;4.72;2.47;;;;;;;;;;4973866;28;20780;-77
2022/09/01 00:08:20;;;;;;;4.75;2.42;;;;;;;;;;4962088;28;20433;-77
2022/09/01 00:10:46;;;;;;;6.15;2.38;;;;;;;;;;4984587;28;20470;-78
2022/09/01 00:13:12;;;;;;;4.10;2.42;;;;;;;;;;4999245;28;20418;-78
2022/09/01 00:15:38;;;;;;;6.28;2.53;;;;;;;;;;4976542;28;20481;-78
2022/09/01 00:18:04;;;;;;;4.47;2.85;;;;;;;;;;4975372;28;20467;-78
2022/09/01 00:20:31;;;;;;;6.15;2.83;;;14.80;99.90;;;;;;4973705;28;20921;-79
2022/09/01 00:22:57;;;;;;;5.10;2.90;;;;;;;;;;4971613;28;20439;-78
2022/09/01 00:25:23;;;;;;;6.57;2.70;;;;;;;;;;4964960;28;20431;-78
2022/09/01 00:27:50;;;;;;;5.97;2.95;;;14.80;99.90;;;;;;4956904;28;20567;-77
2022/09/01 00:30:17;;;;;;;4.95;2.70;;;;;;;;;;4973775;28;20797;-77
2022/09/01 00:32:45;;;;;;;6.13;2.90;;;;;;;;;;4984850;28;20782;-77
2022/09/01 00:35:12;;;;;;;4.20;2.80;;;;;;;;;;4992374;28;20485;-78
2022/09/01 00:37:39;;;;;;;4.93;2.72;;;;;;;;;;5008972;28;20410;-78
2022/09/01 00:40:05;;;;;;;6.87;2.83;;;;;;;;;;4976510;28;20880;-78
2022/09/01 00:42:31;;;;;;;4.75;2.70;;;;;;;;;;4963870;28;20426;-79
2022/09/01 00:44:57;;;;;;;6.50;2.65;;;14.50;99.90;;;;;;4989119;28;20534;-78
2022/09/01 00:47:23;;;;;;;6.03;2.90;;;;;;;;;;4974313;28;20513;-78
2022/09/01 00:49:50;;;;;;;6.07;2.80;;;14.20;99.90;;;;;;4991739;28;20410;-78
2022/09/01 00:52:20;;;;;;;4.95;3.08;;;;;;;;;;4968501;28;20465;-77
2022/09/01 00:54:50;;;;;;;4.05;2.88;;;14.30;99.90;;;;;;4973695;28;20435;-77
2022/09/01 00:57:16;;;;;;;5.60;2.65;;;;;;;;;;4976120;28;20414;-77
2022/09/01 00:59:49;;;;;;;7.05;3.10;;;;;;;;;;4991987;28;20932;-77
2022/09/01 01:02:15;;;;;;;5.60;2.90;;;;;;;;;;5002800;28;20463;-77
2022/09/01 01:04:42;;;;;;;5.20;3.05;;;;;;;;;;5005285;28;20430;-78
2022/09/01 01:07:10;;;;;;;4.53;3.05;;;14.10;99.90;;;;;;4987602;28;20870;-78
2022/09/01 01:09:38;;;;;;;5.63;3.20;;;;;;;;;;5005228;28;20398;-78
2022/09/01 01:12:04;;;;;;;5.15;3.05;;;14.00;99.90;;;;;;4967496;28;20422;-78
2022/09/01 01:14:35;;;;;;;5.10;3.40;;;14.20;99.90;;;;;;4973271;28;20427;-77
2022/09/01 01:17:01;;;;;;;4.65;3.42;;;14.00;99.90;;;;;;4990765;28;20449;-77
2022/09/01 01:25:21;;;;;;;4.35;3.30;;;;;;;;;;4988806;28;20490;-77
2022/09/01 01:27:47;;;;;;;4.70;3.55;;;;;;;;;;4940278;28;20973;-77
2022/09/01 01:30:16;;;;;;;7.87;3.77;;;13.70;99.90;;;;;;4957368;28;20512;-78
2022/09/01 01:32:46;;;;;;;7.50;3.85;;;;;;;;;;4976637;28;20518;-78
2022/09/01 01:35:13;;;;;;;4.90;3.88;;;;;;;;;;4954438;28;20471;-78
2022/09/01 01:37:47;;;;;;;6.28;4.18;;;13.70;99.90;;;;;;4968051;28;20442;-78
2022/09/01 01:40:18;;;;;;;6.00;4.40;;;;;;;;;;4954468;28;20432;-78
2022/09/01 01:42:45;;;;;;;6.10;4.53;;;;;;;;;;4948250;28;20953;-79
2022/09/01 01:45:15;;;;;;;5.45;4.40;;;13.60;99.90;;;;;;4970136;28;20476;-78
2022/09/01 01:47:45;;;;;;;7.80;4.57;;;13.50;99.90;;;;;;4951945;28;20450;-78
2022/09/01 01:50:11;;;;;;;7.55;4.75;;;;;;;;;;4954530;28;20428;-78
2022/09/01 01:52:37;;;;;;;5.80;4.70;;;13.50;99.90;;;;;;4949567;28;20432;-78
2022/09/01 01:55:08;;;;;;;6.60;5.20;;;;;;;;;;4953579;28;20431;-78
2022/09/01 01:57:34;;;;;;;7.40;5.03;;;;;;;;;;4971772;28;20463;-78
2022/09/01 02:00:02;;;;;;;7.03;5.63;;;;;;;;;;4963667;28;20837;-77
2022/09/01 02:02:28;;;;;;;6.85;5.25;;;;;;;;;;4941539;28;20463;-77
2022/09/01 02:04:54;;;;;;;7.78;5.43;;;;;;;;;;4971085;28;20475;-77
2022/09/01 02:07:20;;;;;;;9.68;5.85;;;;;;;;;;4938703;29;20438;-77
2022/09/01 02:09:47;;;;;;;8.25;6.10;;;;;;;;;;4953399;28;20430;-77
2022/09/01 02:12:17;;;;;;;6.70;5.80;;;;;;;;;;4943631;28;20480;-77
2022/09/01 02:14:43;;;;;;;8.70;6.00;;;;;;;;;;4953205;28;20431;-77
2022/09/01 02:17:10;;;;;;;7.88;5.90;;;;;;;;;;4972188;28;20419;-77
2022/09/01 02:19:41;;;;;;;7.20;5.80;;;;;;;;;;4955937;28;20432;-77
2022/09/01 02:22:09;;;;;;;8.27;6.22;;;;;;;;;;4985954;28;20431;-77
2022/09/01 02:24:36;;;;;;;9.07;6.30;;;;;;;;;;4968539;28;20532;-77
2022/09/01 02:27:02;;;;;;;9.38;6.57;;;;;;;;;;4981944;28;20436;-77
2022/09/01 02:29:28;;;;;;;8.37;6.60;;;;;;;;;;4972461;28;20792;-78
2022/09/01 02:31:55;;;;;;;7.88;6.75;;;;;;;;;;4993869;28;20425;-78
2022/09/01 02:34:22;;;;;;;8.23;6.70;;;;;;;;;;4984747;28;20431;-78
2022/09/01 02:36:50;;;;;;;8.32;7.40;;;13.30;99.90;;;;;;4993796;28;20463;-78
2022/09/01 02:39:19;;;;;;;7.93;7.10;;;;;;;;;;4976601;28;20433;-78
2022/09/01 02:41:45;;;;;;;9.90;8.48;;;;;;;;;;4973201;28;20434;-77
2022/09/01 02:44:11;;;;;;;10.27;8.40;;;;;;;;;;4977921;28;20910;-78
2022/09/01 02:46:40;;;;;;;12.98;8.40;;;;;;;;;;4961469;28;20878;-78
2022/09/01 02:49:13;;;;;;;10.32;8.35;;;13.20;99.90;;;;;;4965679;28;20436;-79
2022/09/01 02:51:40;;;;;;;10.75;8.45;;;;;;;;;;4991883;28;20469;-79
2022/09/01 02:54:06;;;;;;;9.65;8.27;;;;;;;;;;4992052;28;20914;-79
2022/09/01 02:56:32;;;;;;;11.48;8.60;;;;;;;;;;4974711;28;20430;-79
2022/09/01 02:59:00;;;;;;;9.53;8.23;;;;;;;;;;4976187;28;20430;-79
2022/09/01 03:01:28;;;;;;;10.17;8.23;;;;;;;;;;4983903;28;20467;-79
2022/09/01 03:03:56;;;;;;;9.43;8.38;;;;;;;;;;4989392;28;20442;-78
2022/09/01 03:06:22;;;;;;;10.88;8.52;;;;;;;;;;4958756;28;20772;-78
2022/09/01 03:08:50;;;;;;;9.98;8.20;;;13.00;99.90;;;;;;4984552;28;20429;-78
2022/09/01 03:11:17;;;;;;;9.95;8.48;;;;;;;;;;4990943;28;20491;-76
2022/09/01 03:13:44;;;;;;;9.00;8.10;;;;;;;;;;4990912;28;20411;-77
2022/09/01 03:16:10;;;;;;;10.30;8.38;;;;;;;;;;4985668;28;20437;-77
2022/09/01 03:18:36;;;;;;;10.90;8.53;;;;;;;;;;4976068;28;20434;-77
2022/09/01 03:21:02;;;;;;;11.65;9.23;;;;;;;;;;4957851;28;21181;-77
2022/09/01 06:14:51;;;;;;;4.75;2.78;;;;;;;;;;5133961;27;20392;-74
2022/09/01 06:17:23;;;;;;;4.75;2.80;;;14.50;99.90;;;;;;5093872;28;20439;-75
2022/09/01 06:19:54;;;;;;;6.65;2.80;;;14.50;99.90;;;;;;5077246;28;20404;-75
2022/09/01 06:22:22;;;;;;;5.05;2.95;;;;;;;;;;5108072;27;20443;-75
2022/09/01 06:24:50;;;;;;;3.70;2.72;;;;;;;;;;5023925;28;20417;-75
2022/09/01 06:27:16;;;;;;;5.75;2.70;;;;;;;;;;4987496;28;20428;-75
2022/09/01 06:29:44;;;;;;;4.65;3.05;;;;;;;;;;5001282;28;20428;-75
2022/09/01 06:32:11;;;;;;;6.68;2.95;;;;;;;;;;5024574;28;20409;-75
2022/09/01 06:34:44;;;;;;;4.70;3.00;;;;;;;;;;5022490;28;20432;-75
2022/09/01 06:37:12;;;;;;;5.10;2.95;;;;;;;;;;5006016;28;20438;-74
2022/09/01 06:39:38;;;;;;;4.85;3.05;;;;;;;;;;5017808;28;20491;-75
2022/09/01 06:42:05;;;;;;;7.22;3.40;;;;;;;;;;5012532;28;20471;-75
2022/09/01 06:44:31;;;;;;;4.82;3.28;;;;;;;;;;5016977;28;20932;-74
2022/09/01 06:46:58;;;;;;;5.75;3.00;;;;;;;;;;5005359;28;20920;-75
2022/09/01 06:49:31;;;;;;;5.05;2.70;;;;;;;;;;5019337;28;20432;-74
2022/09/01 06:51:57;;;;;;;5.45;2.90;;;;;;;;;;5021311;28;20440;-74
2022/09/01 06:54:24;;;;;;;5.38;2.65;;;;;;;;;;5006091;28;20497;-74
2022/09/01 06:56:52;;;;;;;5.00;2.70;;;;;;;;;;5019571;28;20876;-75
2022/09/01 06:59:18;;;;;;;5.32;2.80;;;15.90;99.90;;;;;;5016940;28;20432;-74
2022/09/01 07:01:47;;;;;;;4.60;2.60;;;;;;;;;;5020461;28;20424;-75
2022/09/01 07:04:18;;;;;;;7.13;2.70;;;;;;;;;;5033372;28;20440;-75
2022/09/01 07:06:50;;;;;;;4.68;2.60;;;;;;;;;;5022087;28;20448;-74
2022/09/01 07:09:17;;;;;;;6.25;2.60;;;;;;;;;;5023259;28;20503;-75
2022/09/01 07:11:44;;;;;;;5.68;2.67;;;;;;;;;;5014964;28;20427;-74
2022/09/01 07:14:10;;;;;;;5.32;2.83;;;;;;;;;;5017854;28;20505;-75
2022/09/01 07:16:40;;;;;;;4.95;2.80;;;;;;;;;;5006256;28;20435;-75
2022/09/01 07:19:13;;;;;;;3.90;2.40;;;;;;;;;;5022645;28;20416;-74
2022/09/01 07:21:40;;;;;;;5.22;2.58;;;;;;;;;;5020781;28;20517;-75
2022/09/01 07:24:07;;;;;;;4.78;2.50;;;;;;;;;;5018310;28;20535;-75
2022/09/01 07:26:34;;;;;;;6.30;2.60;;;;;;;;;;5008417;28;20436;-74
2022/09/01 07:29:02;;;;;;;5.53;2.20;;;;;;;;;;5009645;28;20429;-74
2022/09/01 07:31:31;;;;;;;3.45;2.40;;;16.90;99.90;;;;;;5008124;28;20429;-74
2022/09/01 07:33:58;;;;;;;6.30;2.35;;;;;;;;;;5007564;28;21013;-75
2022/09/01 07:36:24;;;;;;;4.68;2.38;;;;;;;;;;4991693;28;20841;-75
2022/09/01 07:38:53;;;;;;;4.32;2.13;;;;;;;;;;5005075;28;20464;-75
2022/09/01 07:41:25;;;;;;;3.60;1.90;;;17.90;99.90;;;;;;4989218;28;20458;-76
2022/09/01 07:43:52;;;;;;;3.55;1.88;;;18.10;99.90;;;;;;5009596;28;20766;-74
2022/09/01 07:46:22;;;;;;;5.38;2.08;;;18.40;99.90;;;;;;4990696;28;20436;-75
2022/09/01 07:48:49;;;;;;;2.73;1.80;;;18.20;99.90;;;;;;5007174;28;20415;-75
2022/09/01 07:51:18;;;;;;;5.30;2.35;;;;;;;;;;5007419;28;20475;-74
2022/09/01 07:53:47;;;;;;;3.90;2.20;;;;;;;;;;4977846;28;20427;-74
2022/09/01 07:56:14;;;;;;;2.85;1.98;;;;;;;;;;5017905;28;20421;-74
2022/09/01 07:58:43;;;;;;;3.35;2.30;;;;;;;;;;5006730;28;20430;-74
2022/09/01 08:01:12;;;;;;;5.45;2.47;;;18.10;99.90;;;;;;4998851;28;20510;-74
2022/09/01 08:03:38;;;;;;;5.40;2.15;;;;;;;;;;5013161;28;20405;-74
2022/09/01 08:06:06;;;;;;;5.70;2.50;;;;;;;;;;5007256;28;20452;-74
2022/09/01 08:08:32;;;;;;;3.92;2.10;;;;;;;;;;5011529;28;20453;-74
2022/09/01 08:10:59;;;;;;;3.42;1.83;;;19.40;99.90;;;;;;5004644;28;20519;-75
2022/09/01 08:13:25;;;;;;;3.72;2.03;;;;;;;;;;5007363;28;20429;-74
2022/09/01 08:15:51;;;;;;;5.00;2.30;;;;;;;;;;5007431;28;20425;-75
2022/09/01 08:18:17;;;;;;;5.40;2.10;;;;;;;;;;5008374;28;20904;-74
2022/09/01 08:20:47;;;;;;;4.93;2.00;;;;;;;;;;5004908;28;20481;-75
2022/09/01 08:23:17;;;;;;;3.65;1.90;;;19.60;99.90;;;;;;4997047;28;20479;-75
2022/09/01 08:25:44;;;;;;;2.77;1.83;;;20.00;99.90;;;;;;5001605;28;20786;-75
2022/09/01 08:28:11;;;;;;;4.88;1.80;;;19.90;99.90;;;;;;5009374;28;21026;-76
2022/09/01 08:30:40;;;;;;;4.95;2.03;;;19.40;99.90;;;;;;5006547;28;20920;-75
2022/09/01 08:33:06;;;;;;;6.32;1.85;;;19.80;99.90;;;;;;5005176;28;20465;-75
2022/09/01 08:35:32;;;;;;;6.05;1.95;;;;;;;;;;5005662;28;20424;-75
2022/09/01 08:37:58;;;;;;;3.40;1.67;;;19.80;99.90;;;;;;5007633;28;20421;-76
2022/09/01 08:40:24;;;;;;;5.73;1.70;;;;;;;;;;5008652;28;20400;-75
2022/09/01 08:43:14;;;;;;;5.10;1.85;;;19.70;99.90;;;;;;5005207;28;20493;-75
2022/09/01 08:45:53;;;;;;;4.65;1.90;;;19.80;99.90;;;;;;5008508;28;20424;-75
2022/09/01 08:48:25;;;;;;;4.22;1.98;;;20.20;99.90;;;;;;5003788;28;20495;-75
2022/09/01 08:50:59;;;;;;;6.97;1.77;;;20.20;99.90;;;;;;5009142;28;20460;-76
2022/09/01 08:53:33;;;;;;;5.30;1.80;;;20.10;99.90;;;;;;5004823;28;20425;-76
2022/09/01 08:56:00;;;;;;;5.57;1.65;;;;;;;;;;5009169;28;20892;-76
2022/09/01 08:58:29;;;;;;;4.35;1.90;;;20.70;99.90;;;;;;5007868;28;20440;-75
2022/09/01 09:01:01;;;;;;;3.63;1.65;;;20.60;99.90;;;;;;5007377;28;20424;-76
2022/09/01 09:03:43;;;;;;;4.45;1.67;;;20.50;99.90;;;;;;5002163;28;20519;-76
2022/09/01 09:06:09;;;;;;;3.03;1.65;;;20.50;99.90;;;;;;5003677;28;20417;-76
2022/09/01 09:08:52;;;;;;;4.10;1.70;;;21.00;99.90;;;;;;5007064;28;20503;-76
2022/09/01 09:11:20;;;;;;;5.43;1.70;;;20.40;99.90;;;;;;5007128;28;20418;-76
2022/09/01 09:13:49;;;;;;;6.80;1.80;;;20.90;99.90;;;;;;5006899;28;20504;-76
2022/09/01 09:16:21;;;;;;;5.70;1.70;;;21.10;99.90;;;;;;5017780;28;20430;-76
2022/09/01 09:18:53;;;;;;;3.35;1.60;;;21.40;99.90;;;;;;4998950;28;20509;-76
2022/09/01 09:21:44;;;;;;;4.05;1.40;;;21.50;99.90;;;;;;4989444;28;20402;-76
2022/09/01 09:24:46;;;;;;;3.40;1.38;;;21.90;99.90;;;;;;5007903;28;20826;-76
2022/09/01 09:27:41;;;;;;;2.87;1.50;;;22.00;99.90;;;;;;5004540;28;20418;-76
2022/09/01 09:30:11;;;;;;;4.72;1.50;;;21.50;99.90;;;;;;5006673;28;20764;-78
2022/09/01 09:32:54;;;;;;;2.60;1.48;;;21.90;99.90;;;;;;5007956;28;20425;-78
2022/09/01 09:35:26;;;;;;;3.30;1.48;;;20.20;99.90;;;;;;4990034;28;20428;-78
2022/09/01 09:37:52;;;;;;;4.38;1.25;;;22.30;99.90;;;;;;5012840;28;20431;-78
2022/09/01 09:40:22;;;;;;;4.77;1.40;;;22.30;99.90;;;;;;4995961;28;20436;-78
2022/09/01 09:42:53;;;;;;;3.90;1.40;;;22.40;99.90;;;;;;5000055;28;20429;-79
2022/09/01 09:45:27;;;;;;;5.53;1.20;;;22.70;99.90;;;;;;4992133;28;20441;-78
2022/09/01 09:47:54;;;;;;;3.13;1.45;;;22.20;99.90;;;;;;4992170;28;21459;-79
2022/09/01 09:50:28;;;;;;;4.40;1.38;;;22.00;99.90;;;;;;5008309;28;20427;-78
2022/09/01 09:53:13;;;;;;;4.20;1.30;;;22.10;99.90;;;;;;5009240;28;20436;-78
2022/09/01 09:56:15;;;;;;;3.40;1.30;;;22.10;99.90;;;;;;5008142;28;20425;-78
2022/09/01 09:58:43;;;;;;;2.72;1.40;;;22.40;99.90;;;;;;4988358;28;20455;-78
2022/09/01 10:01:24;;;;;;;2.72;1.38;;;22.20;99.90;;;;;;5006113;28;20424;-78
2022/09/01 10:03:53;;;;;;;5.95;1.40;;;22.00;99.90;;;;;;4988868;28;20460;-79
2022/09/01 10:06:43;;;;;;;3.60;1.20;;;22.60;99.90;;;;;;4984954;28;20491;-78
2022/09/01 10:09:21;;;;;;;4.57;1.10;;;23.00;99.90;;;;;;5007014;28;20428;-78
2022/09/01 10:11:56;;;;;;;4.63;1.30;;;23.00;99.90;;;;;;5005586;28;20421;-78
2022/09/01 10:14:51;;;;;;;4.53;1.13;;;22.80;99.90;;;;;;4990811;28;20517;-78
2022/09/01 10:17:27;;;;;;;4.28;1.20;;;22.50;99.90;;;;;;5013329;28;20452;-78
2022/09/01 10:19:57;;;;;;;5.05;1.30;;;22.70;99.90;;;;;;4999205;28;20751;-79
2022/09/01 10:22:24;;;;;;;4.13;1.23;;;23.10;99.90;;;;;;4981638;28;20516;-78
2022/09/01 10:24:50;;;;;;;4.03;1.20;;;22.90;99.90;;;;;;4990183;28;20428;-78
2022/09/01 10:27:27;;;;;;;2.77;1.40;;;23.30;99.90;;;;;;5009871;28;20413;-78
2022/09/01 10:30:00;;;;;;;5.18;1.25;;;21.30;99.90;;;;;;4990922;28;20425;-79
2022/09/01 10:32:52;;;;;;;2.58;0.90;;;23.10;99.90;;;;;;5006501;28;20458;-79
2022/09/01 10:35:30;;;;;;;2.72;0.95;;;21.80;99.90;;;;;;4988332;28;20464;-79
2022/09/01 10:37:59;;;;;;;3.78;1.10;;;23.20;99.90;;;;;;5007298;28;20479;-79
2022/09/01 10:40:37;;;;;;;1.98;0.90;;;23.00;99.90;;;;;;5007411;28;20428;-79
2022/09/01 10:43:35;;;;;;;2.60;1.10;;;22.80;99.90;;;;;;5008227;28;20429;-79
2022/09/01 10:46:27;;;;;;;2.78;1.10;;;23.10;99.90;;;;;;4995567;28;20422;-79
2022/09/01 10:48:55;;;;;;;1.45;0.88;;;23.10;99.90;;;;;;5018350;28;20754;-79
2022/09/01 10:51:21;;;;;;;1.98;0.90;;;23.10;99.90;;;;;;5013345;28;20817;-79
2022/09/01 10:53:57;;;;;;;2.20;1.00;;;22.90;99.90;;;;;;4992896;28;20432;-79
2022/09/01 10:56:43;;;;;;;1.55;1.00;;;23.10;99.90;;;;;;4994373;28;20413;-79
2022/09/01 10:59:08;;;;;;;3.83;0.90;;;22.90;99.90;;;;;;5012458;28;20450;-79
2022/09/01 11:01:40;;;;;;;2.30;1.00;;;23.10;99.90;;;;;;4998746;28;20478;-78
2022/09/01 11:04:19;;;;;;;2.15;0.90;;;23.50;99.90;;;;;;4990966;28;20821;-79
2022/09/01 11:07:00;;;;;;;4.25;1.00;;;23.50;99.90;;;;;;5032230;28;20422;-79
2022/09/01 11:09:26;;;;;;;3.22;1.10;;;23.80;99.90;;;;;;5017235;28;20400;-79
2022/09/01 11:12:20;;;;;;;4.07;1.20;;;23.60;99.90;;;;;;5015252;28;20445;-78
2022/09/01 11:14:50;;;;;;;3.55;1.00;;;23.50;99.90;;;;;;5016738;28;20462;-78
2022/09/01 11:18:00;;;;;;;2.50;1.00;;;23.60;99.90;;;;;;5014355;28;20433;-78
2022/09/01 11:20:25;;;;;;;1.98;1.15;;;23.10;99.90;;;;;;4991547;28;20917;-79
2022/09/01 11:23:06;;;;;;;2.03;1.10;;;23.10;99.90;;;;;;4988342;28;20432;-80
2022/09/01 11:25:43;;;;;;;4.07;1.15;;;23.20;99.90;;;;;;4999174;28;20474;-79
2022/09/01 11:28:15;;;;;;;1.83;1.00;;;22.60;99.90;;;;;;5011590;28;20920;-79
2022/09/01 11:30:52;;;;;;;2.05;1.02;;;22.50;99.90;;;;;;5014488;28;20576;-80
2022/09/01 11:33:39;;;;;;;2.25;1.10;;;22.80;99.90;;;;;;4998680;28;20475;-79
2022/09/01 11:36:20;;;;;;;1.88;1.00;;;23.20;99.90;;;;;;5010381;28;20420;-80
2022/09/01 11:38:53;;;;;;;3.65;1.10;;;23.40;99.90;;;;;;5051964;28;20741;-79
2022/09/01 11:41:57;;;;;;;1.90;0.90;;;24.00;99.90;;;;;;5043543;28;20425;-78
2022/09/01 11:44:25;;;;;;;2.80;1.00;;;23.90;99.90;;;;;;4998598;28;20431;-79
2022/09/01 11:47:01;;;;;;;2.92;1.00;;;23.80;99.90;;;;;;4987692;28;20433;-78
2022/09/01 11:49:32;;;;;;;2.60;1.10;;;24.00;99.90;;;;;;5007882;28;20433;-78
2022/09/01 11:52:00;;;;;;;3.40;1.10;;;23.20;99.90;;;;;;4992187;28;20477;-78
2022/09/01 11:54:28;;;;;;;3.25;1.30;;;23.50;99.90;;;;;;5008119;28;20989;-80
2022/09/01 11:56:57;;;;;;;2.42;1.10;;;24.10;99.90;;;;;;5015002;28;20413;-79
2022/09/01 11:59:35;;;;;;;3.10;1.20;;;23.90;99.90;;;;;;4984142;28;20486;-79
2022/09/01 12:02:02;;;;;;;5.85;1.00;;;23.50;99.90;;;;;;5023094;28;20734;-79
2022/09/01 12:04:36;;;;;;;3.42;1.20;;;23.80;99.90;;;;;;5015782;28;20429;-79
2022/09/01 12:07:05;;;;;;;4.03;1.20;;;23.60;99.90;;;;;;4987852;28;20436;-80
2022/09/01 12:09:47;;;;;;;3.20;1.10;;;23.30;99.90;;;;;;5006894;28;20421;-80
2022/09/01 12:12:39;;;;;;;2.45;1.00;;;22.90;99.90;;;;;;4976816;28;20474;-78
2022/09/01 12:15:29;;;;;;;4.10;1.05;;;23.60;99.90;;;;;;4970882;28;20417;-80
2022/09/01 12:18:20;;;;;;;2.15;1.20;;;23.70;99.90;;;;;;4992618;28;20421;-78
2022/09/01 12:20:52;;;;;;;2.00;1.00;;;23.10;99.90;;;;;;5065592;28;20466;-79
2022/09/01 12:23:30;;;;;;;3.43;1.10;;;23.50;99.90;;;;;;5026155;28;20421;-80
2022/09/01 12:26:04;;;;;;;2.47;1.00;;;24.20;99.90;;;;;;5094881;28;20419;-80
2022/09/01 12:28:33;;;;;;;2.55;1.00;;;24.20;99.90;;;;;;5012788;28;20478;-80
2022/09/01 12:31:02;;;;;;;2.55;0.90;;;24.20;99.90;;;;;;5037743;28;20413;-78
2022/09/01 12:33:30;;;;;;;2.28;1.08;;;24.00;99.90;;;;;;5010401;28;20421;-77
2022/09/01 12:36:15;;;;;;;3.85;1.00;;;24.70;99.90;;;;;;4993808;28;20492;-78
2022/09/01 12:38:41;;;;;;;2.65;0.98;;;24.60;99.90;;;;;;4990028;28;20413;-80
2022/09/01 12:41:33;;;;;;;1.75;1.00;;;25.30;99.90;;;;;;4975234;28;20536;-80
2022/09/01 12:44:50;;;;;;;5.33;1.20;;;24.60;99.20;;;;;;5006500;28;20466;-81
2022/09/01 12:47:37;;;;;;;2.53;1.23;;;23.90;99.70;;;;;;4998678;28;20422;-81
2022/09/01 12:50:14;;;;;;;3.65;1.33;;;23.60;99.90;;;;;;4999176;28;20793;-81
2022/09/01 12:52:49;;;;;;;3.60;1.02;;;24.10;99.90;;;;;;5009584;28;20496;-81
2022/09/01 12:55:18;;;;;;;2.95;1.05;;;24.50;99.90;;;;;;4991161;28;20421;-81
2022/09/01 12:57:53;;;;;;;2.10;1.00;;;24.40;99.90;;;;;;4992721;28;20511;-80
2022/09/01 13:00:29;;;;;;;2.03;1.00;;;24.20;99.90;;;;;;5040473;28;20486;-81
2022/09/01 13:03:07;;;;;;;4.18;1.20;;;23.60;99.90;;;;;;5112550;28;20458;-82
2022/09/01 13:05:40;;;;;;;2.30;1.08;;;23.10;99.90;;;;;;5043627;28;20413;-80
2022/09/01 13:08:12;;;;;;;2.47;1.10;;;23.20;99.90;;;;;;5004311;28;20424;-80
2022/09/01 13:10:42;;;;;;;4.78;1.20;;;23.30;99.90;;;;;;5000726;28;20916;-81
2022/09/01 13:13:09;;;;;;;4.80;1.10;;;23.50;99.90;;;;;;5009031;28;20429;-80
2022/09/01 13:15:38;;;;;;;3.45;1.10;;;24.00;99.90;;;;;;5008451;28;20802;-82
2022/09/01 13:18:04;;;;;;;5.00;1.98;;;24.30;99.90;;;;;;4990211;28;20496;-81
2022/09/01 13:20:30;;;;;;;3.83;1.98;;;24.00;99.90;;;;;;4990570;28;20641;-83
2022/09/01 13:22:56;;;;;;;3.50;1.70;;;24.50;99.90;;;;;;5008343;28;20982;-82
2022/09/01 13:25:23;;;;;;;2.85;1.50;;;24.10;99.90;;;;;;4985378;28;20941;-81
2022/09/01 13:27:51;;;;;;;3.40;1.30;;;24.50;99.90;;;;;;5005619;28;20428;-81
2022/09/01 13:30:22;;;;;;;6.47;1.50;;;24.70;99.90;;;;;;5006897;28;20520;-81
2022/09/01 13:32:50;;;;;;;2.00;0.90;;;24.90;99.90;;;;;;4989688;28;20955;-82
2022/09/01 13:35:20;;;;;;;2.88;0.90;;;24.90;99.90;;;;;;4990454;28;20433;-83
2022/09/01 13:37:46;;;;;;;1.73;0.98;;;24.80;99.90;;;;;;5005974;28;20529;-81
2022/09/01 13:40:16;;;;;;;2.05;1.00;;;24.20;99.90;;;;;;5008415;28;20401;-78
2022/09/01 13:42:46;;;;;;;3.22;1.10;;;24.40;99.90;;;;;;4991619;28;20436;-85
2022/09/01 13:45:13;;;;;;;4.88;1.10;;;24.50;99.90;;;;;;5006957;28;20421;-85
2022/09/01 13:47:40;;;;;;;1.45;0.90;;;24.80;99.90;;;;;;5005841;28;20435;-83
2022/09/01 13:50:07;;;;;;;4.00;1.00;;;24.40;99.90;;;;;;5076292;28;20478;-84
2022/09/01 13:52:33;;;;;;;3.30;0.98;;;24.30;99.90;;;;;;4988460;28;20421;-83
2022/09/01 13:55:00;;;;;;;2.63;1.00;;;24.40;99.90;;;;;;5006412;28;20489;-83
2022/09/01 13:57:26;;;;;;;3.45;1.00;;;24.30;99.90;;;;;;5006820;28;20486;-83
2022/09/01 13:59:53;;;;;;;25.98;1.70;;;24.30;99.90;;;;;;5007224;28;20985;-84
2022/09/01 14:02:19;;;;;;;3.47;1.10;;;24.40;99.90;;;;;;4990074;28;20996;-84
2022/09/01 14:04:45;;;;;;;2.77;1.00;;;24.10;99.90;;;;;;5072448;28;20592;-85
2022/09/01 14:07:10;;;;;;;3.33;1.00;;;24.20;99.90;;;;;;5008162;28;20425;-84
2022/09/01 14:09:36;;;;;;;4.50;1.00;;;23.90;99.90;;;;;;5005080;28;20840;-83
2022/09/01 14:12:04;;;;;;;3.03;0.93;;;23.90;99.90;;;;;;5004530;28;20421;-83
2022/09/01 14:14:32;;;;;;;4.43;0.90;;;24.30;99.90;;;;;;4990753;28;20434;-84
2022/09/01 14:16:57;;;;;;;3.10;1.20;;;24.20;99.90;;;;;;4985955;28;20444;-84
2022/09/01 14:19:23;;;;;;;2.80;1.07;;;24.30;99.90;;;;;;4987744;28;20874;-85
2022/09/01 14:21:49;;;;;;;3.70;1.20;;;24.50;99.90;;;;;;5004785;28;20885;-84
2022/09/01 14:24:18;;;;;;;3.83;1.70;;;24.50;99.90;;;;;;5004430;28;20791;-84
2022/09/01 14:26:45;;;;;;;8.15;1.52;;;24.00;99.90;;;;;;5004162;28;20507;-84
2022/09/01 14:29:10;;;;;;;4.93;1.20;;;24.10;99.90;;;;;;5006104;28;20437;-82
2022/09/01 14:31:36;;;;;;;5.90;1.17;;;24.10;99.90;;;;;;5003386;28;20430;-83
2022/09/01 14:34:03;;;;;;;5.03;1.00;;;24.10;99.90;;;;;;5001475;28;20611;-82
2022/09/01 14:36:30;;;;;;;5.45;1.27;;;24.10;99.90;;;;;;4993925;28;20790;-85
2022/09/01 14:38:55;;;;;;;5.00;1.02;;;24.00;99.90;;;;;;5010878;28;20428;-83
2022/09/01 14:41:23;;;;;;;3.03;1.00;;;23.70;99.90;;;;;;4993663;28;20797;-85
2022/09/01 14:43:51;;;;;;;4.18;1.05;;;24.00;99.90;;;;;;5024296;28;20427;-85
2022/09/01 14:46:19;;;;;;;1.67;0.98;;;24.10;99.90;;;;;;5019559;28;20485;-82
2022/09/01 14:48:46;;;;;;;4.70;1.40;;;24.20;99.90;;;;;;4993907;28;20919;-83
2022/09/01 14:51:23;;;;;;;2.17;1.08;;;23.90;99.90;;;;;;5011368;28;20432;-85
2022/09/01 14:53:51;;;;;;;6.70;1.52;;;24.00;99.90;;;;;;5011939;28;20451;-84
2022/09/01 14:56:18;;;;;;;2.50;0.98;;;24.30;99.90;;;;;;5006250;28;20497;-85
2022/09/01 14:58:46;;;;;;;3.67;1.00;;;24.20;99.90;;;;;;4991912;28;20458;-84
2022/09/01 15:01:13;;;;;;;3.13;0.93;;;24.10;99.90;;;;;;5012368;28;20908;-81
2022/09/01 15:03:41;;;;;;;7.15;1.10;;;24.40;99.90;;;;;;5011071;28;20760;-84
2022/09/01 15:06:15;;;;;;;4.32;1.13;;;24.20;99.90;;;;;;5012010;28;20926;-83
2022/09/01 15:08:42;;;;;;;6.97;1.20;;;23.90;99.90;;;;;;5006621;28;20794;-84
2022/09/01 15:11:15;;;;;;;2.13;0.90;;;24.00;99.90;;;;;;4990639;28;20425;-86
2022/09/01 15:13:42;;;;;;;2.00;1.00;;;23.90;99.90;;;;;;5007969;28;20486;-87
2022/09/01 15:16:17;;;;;;;3.20;1.00;;;23.60;99.90;;;;;;4993615;28;20485;-88
2022/09/01 15:18:44;;;;;;;2.47;0.90;;;23.90;99.90;;;;;;5021171;28;20429;-88
2022/09/01 15:21:25;;;;;;;2.90;0.90;;;24.00;99.90;;;;;;4991032;28;20416;-87
2022/09/01 15:23:52;;;;;;;4.60;0.90;;;22.50;99.90;;;;;;4994101;28;20767;-87
2022/09/01 15:26:19;;;;;;;5.22;1.10;;;24.30;99.90;;;;;;4992707;28;20417;-88
2022/09/01 15:28:48;;;;;;;4.28;0.95;;;22.00;99.90;;;;;;4974809;28;20431;-86
2022/09/01 15:31:18;;;;;;;3.08;1.05;;;24.30;99.90;;;;;;4995506;28;20514;-87
2022/09/01 15:33:44;;;;;;;3.28;1.13;;;24.00;99.90;;;;;;4996431;28;20451;-87
2022/09/01 15:36:21;;;;;;;3.30;1.00;;;24.10;99.90;;;;;;4995259;28;20417;-84
2022/09/01 15:38:50;;;;;;;6.00;1.10;;;24.80;99.90;;;;;;4982600;28;20508;-84
2022/09/01 15:41:24;;;;;;;3.95;1.08;;;23.90;99.90;;;;;;4992687;28;20930;-86
2022/09/01 15:43:50;;;;;;;3.20;0.90;;;23.90;99.90;;;;;;5014268;28;20747;-86
2022/09/01 15:46:17;;;;;;;3.53;1.10;;;22.20;99.90;;;;;;4992138;28;20426;-85
2022/09/01 15:48:43;;;;;;;2.55;1.00;;;24.10;99.90;;;;;;4995929;28;20421;-86
2022/09/01 15:51:14;;;;;;;4.68;1.00;;;24.60;99.90;;;;;;5010174;28;20416;-86
2022/09/01 15:53:40;;;;;;;2.05;0.90;;;23.40;99.90;;;;;;4991942;28;20433;-86
2022/09/01 15:56:06;;;;;;;3.57;1.30;;;23.50;99.90;;;;;;4993874;28;20413;-86
2022/09/01 15:58:33;;;;;;;1.83;0.90;;;23.50;99.90;;;;;;4993272;28;20421;-87
2022/09/01 16:01:00;;;;;;;3.43;1.00;;;23.70;99.90;;;;;;5008880;28;20432;-88
2022/09/01 16:03:28;;;;;;;4.28;1.10;;;23.40;99.90;;;;;;4993624;28;20511;-87
2022/09/01 16:05:54;;;;;;;5.43;1.10;;;23.30;99.90;;;;;;4994314;28;20783;-88
2022/09/01 16:08:20;;;;;;;3.65;1.00;;;23.50;99.80;;;;;;4991714;28;20981;-86
2022/09/01 16:10:46;;;;;;;2.33;0.90;;;23.50;99.50;;;;;;4993694;28;20425;-86
2022/09/01 16:13:17;;;;;;;2.28;0.80;;;23.30;99.50;;;;;;5018846;28;20436;-86
2022/09/01 16:15:59;;;;;;;4.87;0.97;;;21.50;99.90;;;;;;4994415;28;20401;-86
2022/09/01 16:18:48;;;;;;;2.78;0.80;;;23.40;99.90;;;;;;4992695;28;20421;-86
2022/09/01 16:21:36;;;;;;;2.13;1.00;;;23.50;99.60;;;;;;4983318;28;20425;-86
2022/09/01 16:24:09;;;;;;;3.05;0.93;;;23.40;99.90;;;;;;4975173;28;20419;-86
2022/09/01 16:26:36;;;;;;;2.40;0.90;;;23.40;99.70;;;;;;5006172;28;20865;-84
2022/09/01 16:29:18;;;;;;;6.85;1.23;;;23.30;99.50;;;;;;4994949;28;20939;-87
2022/09/01 16:31:50;;;;;;;4.85;1.80;;;23.30;99.70;;;;;;5016420;28;20820;-87
2022/09/01 16:34:17;;;;;;;2.83;1.23;;;23.20;99.70;;;;;;5080781;28;20501;-87
2022/09/01 16:37:09;;;;;;;4.05;0.90;;;23.10;99.70;;;;;;5071540;28;20519;-84
2022/09/01 16:39:38;;;;;;;1.02;0.88;;;23.10;99.70;;;;;;5013217;28;20985;-83